createdAt,value
2023-02-11T00:04:30.369Z,17.2
2023-02-11T00:09:31.845Z,17.1
2023-02-11T00:14:30.496Z,17.2
2023-02-11T00:19:30.816Z,17.1
2023-02-11T00:24:31.227Z,17
2023-02-11T00:29:31.662Z,17.1
2023-02-11T00:34:36.289Z,17.1
2023-02-11T00:39:35.668Z,17.1
2023-02-11T00:44:36.078Z,17
2023-02-11T00:49:36.093Z,17.1
2023-02-11T00:54:36.307Z,17.1
2023-02-11T00:59:39.245Z,17
2023-02-11T01:04:39.235Z,17.1
2023-02-11T01:09:39.544Z,17
2023-02-11T01:14:42.193Z,17
2023-02-11T01:19:44.710Z,17
2023-02-11T01:24:44.536Z,16.9
2023-02-11T01:29:44.582Z,17
2023-02-11T01:34:47.523Z,17
2023-02-11T01:39:47.339Z,16.9
2023-02-11T01:44:47.675Z,16.8
2023-02-11T01:49:47.777Z,17
2023-02-11T01:54:47.726Z,17
2023-02-11T01:59:50.717Z,17.1
2023-02-11T02:04:50.505Z,16.8
2023-02-11T02:09:50.822Z,16.9
2023-02-11T02:14:50.896Z,17
2023-02-11T02:19:51.095Z,17
2023-02-11T02:24:51.263Z,17
2023-02-11T02:29:54.355Z,16.9
2023-02-11T02:34:54.214Z,16.9
2023-02-11T02:39:54.394Z,16.9
2023-02-11T02:44:54.767Z,17
2023-02-11T02:49:55.122Z,16.9
2023-02-11T02:54:55.335Z,16.8
2023-02-11T02:59:56.360Z,16.8
2023-02-11T03:04:56.437Z,17
2023-02-11T03:09:56.600Z,16.9
2023-02-11T03:14:56.923Z,16.9
2023-02-11T03:19:57.071Z,16.9
2023-02-11T03:24:56.807Z,16.8
2023-02-11T03:29:56.835Z,16.9
2023-02-11T03:34:57.227Z,16.9
2023-02-11T03:39:57.485Z,16.7
2023-02-11T03:44:57.608Z,16.6
2023-02-11T03:50:00.608Z,16.9
2023-02-11T03:55:01.996Z,16.8
2023-02-11T04:00:01.988Z,16.8
2023-02-11T04:05:01.994Z,16.7
2023-02-11T04:10:02.342Z,16.7
2023-02-11T04:15:04.940Z,16.3
2023-02-11T04:20:04.841Z,16.6
2023-02-11T04:25:04.908Z,16.8
2023-02-11T04:30:05.349Z,16.8
2023-02-11T04:35:05.705Z,16.8
2023-02-11T04:40:06.075Z,16.7
2023-02-11T04:45:08.249Z,16.5
2023-02-11T04:50:08.038Z,16.7
2023-02-11T04:55:08.037Z,16.6
2023-02-11T05:00:08.457Z,16.5
2023-02-11T05:05:08.800Z,16.6
2023-02-11T05:10:09.117Z,16.5
2023-02-11T05:15:09.303Z,16.6
2023-02-11T05:20:12.462Z,16.3
2023-02-11T05:25:12.069Z,16.7
2023-02-11T05:30:12.489Z,16.6
2023-02-11T05:35:12.813Z,16.6
2023-02-11T05:40:13.279Z,16.6
2023-02-11T05:45:13.588Z,16.6
2023-02-11T05:50:14.106Z,16.7
2023-02-11T05:55:14.531Z,16.7
2023-02-11T06:00:14.879Z,16.8
2023-02-11T06:05:14.933Z,16.7
2023-02-11T06:10:15.258Z,16.7
2023-02-11T06:15:15.570Z,16.8
2023-02-11T06:20:15.818Z,17
2023-02-11T06:25:15.813Z,17
2023-02-11T06:30:15.770Z,17.1
2023-02-11T06:35:16.249Z,17.2
2023-02-11T06:40:20.213Z,17.2
2023-02-11T06:45:19.740Z,17.1
2023-02-11T06:50:19.965Z,17.3
2023-02-11T06:55:20.165Z,17.3
2023-02-11T07:00:20.127Z,17.3
2023-02-11T07:05:20.480Z,17.3
2023-02-11T07:10:20.845Z,17.3
2023-02-11T07:15:20.938Z,17.4
2023-02-11T07:20:21.165Z,17.4
2023-02-11T07:25:21.432Z,17.5
2023-02-11T07:30:24.246Z,17.5
2023-02-11T07:35:27.018Z,17.5
2023-02-11T07:40:28.717Z,17.5
2023-02-11T07:45:28.454Z,17.6
2023-02-11T07:50:28.592Z,17.5
2023-02-11T07:55:28.724Z,17.6
2023-02-11T08:00:28.962Z,17.6
2023-02-11T08:05:32.163Z,17.5
2023-02-11T08:10:32.041Z,17.7
2023-02-11T08:15:32.303Z,17.7
2023-02-11T08:20:32.552Z,17.7
2023-02-11T08:25:32.639Z,17.6
2023-02-11T08:30:32.956Z,17.6
2023-02-11T08:35:33.182Z,17.6
2023-02-11T08:40:33.347Z,17.6
2023-02-11T08:45:33.579Z,17.6
2023-02-11T08:50:33.856Z,17.6
2023-02-11T08:55:34.168Z,17.6
2023-02-11T09:00:34.640Z,17.6
2023-02-11T09:05:35.020Z,17.6
2023-02-11T09:10:34.886Z,17.5
2023-02-11T09:15:35.079Z,17.5
2023-02-11T09:20:35.303Z,17.6
2023-02-11T09:25:35.672Z,17.5
2023-02-11T09:30:36.056Z,17.6
2023-02-11T09:35:38.890Z,17.6
2023-02-11T09:40:41.428Z,17.6
2023-02-11T09:45:41.248Z,17.6
2023-02-11T09:50:41.539Z,17.6
2023-02-11T09:55:41.758Z,17.7
2023-02-11T10:00:42.061Z,17.7
2023-02-11T10:05:42.614Z,17.7
2023-02-11T10:10:42.952Z,17.7
2023-02-11T10:15:43.150Z,17.7
2023-02-11T10:20:43.469Z,17.6
2023-02-11T10:25:45.362Z,17.7
2023-02-11T10:30:47.120Z,17.7
2023-02-11T10:35:49.539Z,17.8
2023-02-11T10:40:49.698Z,17.7
2023-02-11T10:45:49.781Z,17.7
2023-02-11T10:50:50.400Z,17.6
2023-02-11T10:55:50.443Z,17.7
2023-02-11T11:00:50.849Z,17.7
2023-02-11T11:05:51.081Z,17.8
2023-02-11T11:10:51.536Z,17.9
2023-02-11T11:15:51.858Z,17.8
2023-02-11T11:20:52.675Z,18
2023-02-11T11:25:52.741Z,18.1
2023-02-11T11:30:53.494Z,18.1
2023-02-11T11:35:53.506Z,18
2023-02-11T11:40:53.912Z,18.2
2023-02-11T11:45:54.250Z,18.1
2023-02-11T11:50:54.511Z,18.3
2023-02-11T11:55:55.517Z,18.3
2023-02-11T12:01:01.892Z,18.4
2023-02-11T12:06:01.115Z,18.4
2023-02-11T12:11:01.263Z,18.5
2023-02-11T12:16:01.472Z,18.4
2023-02-11T12:21:01.849Z,18.4
2023-02-11T12:26:01.934Z,18.2
2023-02-11T12:31:04.907Z,18.5
2023-02-11T12:36:04.734Z,18.5
2023-02-11T12:41:04.895Z,18.5
2023-02-11T12:46:07.889Z,18.5
2023-02-11T12:51:10.399Z,18.5
2023-02-11T12:56:10.135Z,18.5
2023-02-11T13:01:13.241Z,18.6
2023-02-11T13:06:12.981Z,18.6
2023-02-11T13:11:14.528Z,18.6
2023-02-11T13:16:13.844Z,18.6
2023-02-11T13:21:14.088Z,18.6
2023-02-11T13:26:14.244Z,18.7
2023-02-11T13:31:14.767Z,18.5
2023-02-11T13:36:14.906Z,18.5
2023-02-11T13:41:15.005Z,18.7
2023-02-11T13:46:15.250Z,18.7
2023-02-11T13:51:17.852Z,18.7
2023-02-11T13:56:17.393Z,18.8
2023-02-11T14:01:20.401Z,18.7
2023-02-11T14:06:19.948Z,18.8
2023-02-11T14:11:20.228Z,18.7
2023-02-11T14:16:35.523Z,18.8
2023-02-11T14:21:21.917Z,18.7
2023-02-11T14:26:21.767Z,18.9
2023-02-11T14:31:22.088Z,18.9
2023-02-11T14:36:25.070Z,18.9
2023-02-11T14:41:27.539Z,18.9
2023-02-11T14:46:27.526Z,18.9
2023-02-11T14:51:30.384Z,18.9
2023-02-11T14:56:32.885Z,18.8
2023-02-11T15:01:32.826Z,19
2023-02-11T15:06:32.861Z,18.9
2023-02-11T15:11:33.059Z,19
2023-02-11T15:16:33.214Z,19
2023-02-11T15:21:33.533Z,19
2023-02-11T15:26:33.953Z,18.9
2023-02-11T15:31:35.214Z,19
2023-02-11T15:36:34.443Z,18.9
2023-02-11T15:41:39.057Z,19
2023-02-11T15:46:38.626Z,19
2023-02-11T15:51:38.858Z,19
2023-02-11T15:56:39.000Z,19
2023-02-11T16:01:39.471Z,18.9
2023-02-11T16:06:39.403Z,19
2023-02-11T16:11:42.374Z,18.9
2023-02-11T16:16:44.767Z,19
2023-02-11T16:21:44.555Z,19
2023-02-11T16:26:47.384Z,19
2023-02-11T16:31:47.398Z,18.9
2023-02-11T16:36:47.729Z,19
2023-02-11T16:41:47.937Z,19
2023-02-11T16:46:48.033Z,19
2023-02-11T16:51:51.033Z,19
2023-02-11T16:56:50.844Z,18.8
2023-02-11T17:01:51.181Z,19
2023-02-11T17:06:51.015Z,19
2023-02-11T17:11:51.391Z,18.9
2023-02-11T17:16:51.569Z,18.9
2023-02-11T17:21:51.577Z,19
2023-02-11T17:26:51.908Z,19
2023-02-11T17:31:52.397Z,18.9
2023-02-11T17:36:52.349Z,18.8
2023-02-11T17:41:52.640Z,18.9
2023-02-11T17:46:53.035Z,19
2023-02-11T17:51:53.113Z,19
2023-02-11T17:56:54.661Z,19
2023-02-11T18:01:53.538Z,19
2023-02-11T18:06:53.703Z,18.8
2023-02-11T18:11:53.880Z,18.8
2023-02-11T18:16:54.189Z,18.8
2023-02-11T18:21:59.165Z,18.7
2023-02-11T18:26:56.937Z,18.7
2023-02-11T18:31:57.637Z,18.6
2023-02-11T18:36:57.834Z,18.5
2023-02-11T18:41:58.379Z,18.7
2023-02-11T18:46:58.814Z,18.7
2023-02-11T18:51:59.120Z,18.5
2023-02-11T18:57:01.079Z,18.5
2023-02-11T19:02:00.545Z,18.6
2023-02-11T19:07:00.671Z,18.6
2023-02-11T19:12:00.596Z,18.6
2023-02-11T19:17:00.611Z,18.6
2023-02-11T19:22:00.407Z,18.5
2023-02-11T19:27:00.027Z,18.5
2023-02-11T19:32:00.394Z,18.5
2023-02-11T19:36:59.744Z,18.5
2023-02-11T19:42:01.396Z,18.5
2023-02-11T19:47:04.243Z,18.4
2023-02-11T19:52:06.850Z,18.5
2023-02-11T19:57:10.272Z,18.4
2023-02-11T20:02:12.504Z,18.4
2023-02-11T20:07:12.376Z,18.3
2023-02-11T20:12:12.411Z,18.3
2023-02-11T20:17:12.598Z,18.2
2023-02-11T20:22:12.867Z,18.3
2023-02-11T20:27:12.932Z,18.2
2023-02-11T20:32:13.330Z,18.1
2023-02-11T20:37:13.581Z,18.2
2023-02-11T20:42:13.987Z,18.2
2023-02-11T20:47:14.187Z,18.2
2023-02-11T20:52:14.416Z,18.2
2023-02-11T20:57:14.680Z,18
2023-02-11T21:02:15.062Z,18.1
2023-02-11T21:07:15.462Z,18
2023-02-11T21:12:18.444Z,18.2
2023-02-11T21:17:18.167Z,18.2
2023-02-11T21:22:18.448Z,18.1
2023-02-11T21:27:18.664Z,18.1
2023-02-11T21:32:18.733Z,18.1
2023-02-11T21:37:18.974Z,17.9
2023-02-11T21:42:19.515Z,18.1
2023-02-11T21:47:19.675Z,18
2023-02-11T21:52:19.735Z,18.1
2023-02-11T21:57:19.883Z,18
2023-02-11T22:02:20.178Z,18
2023-02-11T22:07:23.297Z,17.9
2023-02-11T22:12:23.094Z,17.8
2023-02-11T22:17:24.615Z,18
2023-02-11T22:22:27.429Z,18
2023-02-11T22:27:27.257Z,17.9
2023-02-11T22:32:27.438Z,18
2023-02-11T22:37:27.850Z,18
2023-02-11T22:42:28.114Z,17.8
2023-02-11T22:47:28.328Z,17.9
2023-02-11T22:52:28.689Z,17.8
2023-02-11T22:57:29.162Z,17.9
2023-02-11T23:02:29.624Z,17.9
2023-02-11T23:07:29.643Z,17.9
2023-02-11T23:12:29.960Z,17.9
2023-02-11T23:17:30.195Z,17.8
2023-02-11T23:22:30.251Z,17.9
2023-02-11T23:27:30.755Z,17.9
2023-02-11T23:32:31.117Z,17.8
2023-02-11T23:37:31.220Z,17.6
2023-02-11T23:42:34.192Z,17.9
2023-02-11T23:47:36.776Z,17.8
2023-02-11T23:52:36.401Z,17.8
2023-02-11T23:57:36.699Z,17.8
